Time;durP1;ratioP1;P1;durP2;ratioP2;P2;SDS_P1;SDS_P2;PMS_P1;PMS_P2;Temp;Humidity;BMP_temperature;BMP_pressure;BME280_temperature;BME280_humidity;BME280_pressure;Samples;Min_cycle;Max_cycle;Signal;HPM_P1;HPM_P2
2023/03/08 00:02:07;;;;;;;11.27;6.37;;;2.70;99.90;;;;;;5007295;28;20485;-70
2023/03/08 00:04:35;;;;;;;9.07;5.63;;;2.70;99.90;;;;;;5009452;28;20480;-71
2023/03/08 00:07:02;;;;;;;7.47;5.23;;;2.70;99.90;;;;;;5011591;28;20443;-70
2023/03/08 00:09:30;;;;;;;14.23;7.60;;;2.60;99.90;;;;;;5013154;28;20541;-71
2023/03/08 00:11:58;;;;;;;10.10;6.43;;;2.60;99.90;;;;;;5011884;28;21011;-71
2023/03/08 00:14:25;;;;;;;7.47;5.40;;;2.60;99.90;;;;;;5009357;28;20487;-70
2023/03/08 00:16:54;;;;;;;14.90;5.97;;;2.60;99.90;;;;;;5010412;28;20472;-70
2023/03/08 00:19:21;;;;;;;9.37;6.00;;;2.50;99.90;;;;;;4995971;28;20511;-71
2023/03/08 00:21:49;;;;;;;12.63;7.47;;;2.50;99.90;;;;;;4991982;28;20909;-70
2023/03/08 00:24:16;;;;;;;13.13;9.33;;;2.50;99.90;;;;;;5009498;28;20456;-71
2023/03/08 00:26:43;;;;;;;12.60;5.87;;;2.50;99.90;;;;;;5004243;28;20457;-70
2023/03/08 00:29:10;;;;;;;10.57;6.20;;;2.50;99.90;;;;;;5009679;28;20925;-70
2023/03/08 00:31:37;;;;;;;12.10;6.73;;;2.40;99.90;;;;;;4972333;28;20933;-71
2023/03/08 00:34:04;;;;;;;13.00;7.73;;;2.40;99.90;;;;;;5006366;28;20532;-72
2023/03/08 00:36:31;;;;;;;12.27;7.93;;;2.40;99.90;;;;;;5023509;28;20897;-71
2023/03/08 00:38:59;;;;;;;13.23;7.70;;;2.40;99.90;;;;;;5022595;28;20768;-71
2023/03/08 00:41:26;;;;;;;13.17;7.67;;;2.50;99.90;;;;;;5010419;28;21105;-71
2023/03/08 00:43:53;;;;;;;10.43;8.30;;;2.60;99.90;;;;;;5003686;28;20566;-71
2023/03/08 00:46:20;;;;;;;11.10;6.43;;;2.60;99.90;;;;;;5009755;28;20551;-71
2023/03/08 00:48:46;;;;;;;10.03;6.33;;;2.70;99.90;;;;;;5001309;28;21843;-70
2023/03/08 00:51:15;;;;;;;15.03;7.83;;;2.70;99.90;;;;;;5013741;28;20446;-70
2023/03/08 00:53:42;;;;;;;11.37;8.57;;;2.70;99.90;;;;;;5007293;28;20456;-70
2023/03/08 00:56:11;;;;;;;16.20;8.57;;;2.70;99.90;;;;;;5006314;28;20491;-70
2023/03/08 00:58:39;;;;;;;14.57;8.13;;;2.70;99.90;;;;;;5006591;28;20860;-70
2023/03/08 01:01:07;;;;;;;17.20;8.23;;;2.60;99.90;;;;;;5001223;28;20441;-70
2023/03/08 01:03:34;;;;;;;9.27;5.53;;;2.50;99.90;;;;;;4996928;28;20481;-70
2023/03/08 01:06:07;;;;;;;21.40;9.23;;;2.50;99.90;;;;;;5011150;28;20537;-70
2023/03/08 01:08:34;;;;;;;14.40;8.70;;;2.70;99.90;;;;;;5003504;28;20439;-70
2023/03/08 01:11:01;;;;;;;13.90;9.17;;;2.90;99.90;;;;;;5009382;28;20464;-70
2023/03/08 01:13:31;;;;;;;10.33;5.60;;;3.00;99.90;;;;;;5006134;28;20928;-70
2023/03/08 01:15:58;;;;;;;10.13;6.63;;;3.10;99.90;;;;;;5010230;28;20470;-70
2023/03/08 01:18:26;;;;;;;10.43;6.20;;;3.00;99.90;;;;;;5012887;28;20536;-70
2023/03/08 01:20:57;;;;;;;11.80;5.60;;;3.10;99.90;;;;;;5004763;28;20473;-70
2023/03/08 01:23:24;;;;;;;16.23;8.00;;;2.90;99.90;;;;;;5004365;28;20539;-70
2023/03/08 01:25:58;;;;;;;17.20;7.93;;;3.00;99.90;;;;;;5003951;28;20905;-70
2023/03/08 01:28:25;;;;;;;10.63;7.67;;;3.10;99.90;;;;;;5009739;28;20457;-70
2023/03/08 01:30:53;;;;;;;14.00;8.60;;;3.20;99.90;;;;;;5005568;28;20511;-70
2023/03/08 01:33:20;;;;;;;11.03;7.17;;;3.20;99.90;;;;;;5005032;28;20946;-70
2023/03/08 01:35:47;;;;;;;20.10;7.40;;;3.20;99.90;;;;;;5003813;28;20797;-70
2023/03/08 01:38:14;;;;;;;13.37;7.10;;;3.30;99.90;;;;;;5007085;28;20498;-69
2023/03/08 01:40:41;;;;;;;16.40;6.40;;;3.30;99.90;;;;;;5008010;28;20462;-70
2023/03/08 01:43:22;;;;;;;7.63;4.83;;;3.40;99.90;;;;;;5009895;28;21085;-70
2023/03/08 01:46:07;;;;;;;10.30;7.80;;;3.50;99.90;;;;;;4999725;28;20453;-69
2023/03/08 01:48:37;;;;;;;18.53;8.20;;;3.50;99.90;;;;;;5004050;28;20472;-69
2023/03/08 01:51:06;;;;;;;11.70;5.80;;;3.50;99.90;;;;;;5004734;28;20499;-69
2023/03/08 01:53:34;;;;;;;17.13;8.17;;;3.40;99.90;;;;;;5010497;28;20462;-69
2023/03/08 01:56:04;;;;;;;14.00;7.90;;;3.40;99.90;;;;;;5006637;28;20429;-69
2023/03/08 01:58:31;;;;;;;14.73;7.93;;;3.50;99.90;;;;;;5009513;28;20734;-70
2023/03/08 02:00:58;;;;;;;19.67;9.73;;;3.40;99.90;;;;;;5007208;28;20793;-70
2023/03/08 02:03:27;;;;;;;10.00;7.20;;;3.40;99.90;;;;;;5009457;28;20778;-70
2023/03/08 02:05:54;;;;;;;10.87;6.80;;;3.50;99.90;;;;;;5015112;28;20454;-70
2023/03/08 02:08:22;;;;;;;15.20;7.77;;;3.40;99.90;;;;;;5004215;28;20527;-71
2023/03/08 02:10:50;;;;;;;11.00;7.20;;;3.40;99.90;;;;;;5000902;28;20476;-71
2023/03/08 02:13:19;;;;;;;12.17;6.80;;;3.50;99.90;;;;;;4998593;28;20423;-71
2023/03/08 02:15:49;;;;;;;16.87;7.47;;;3.50;99.90;;;;;;5009395;28;20496;-71
2023/03/08 02:18:16;;;;;;;17.73;8.33;;;3.50;99.90;;;;;;5009646;28;20454;-71
2023/03/08 02:20:45;;;;;;;13.97;8.00;;;3.40;99.90;;;;;;5010955;28;20435;-71
2023/03/08 02:23:15;;;;;;;10.27;6.20;;;3.60;99.90;;;;;;5005624;28;20491;-71
2023/03/08 02:25:49;;;;;;;20.43;7.87;;;3.50;99.90;;;;;;5013032;28;20469;-71
2023/03/08 02:28:17;;;;;;;15.53;7.07;;;3.50;99.90;;;;;;5015322;28;20502;-71
2023/03/08 02:30:44;;;;;;;13.73;7.43;;;3.50;99.90;;;;;;5012097;28;20480;-71
2023/03/08 02:33:11;;;;;;;12.47;7.90;;;3.50;99.90;;;;;;5003613;28;20526;-71
2023/03/08 02:35:41;;;;;;;14.40;6.80;;;3.40;99.90;;;;;;5004967;28;20456;-71
2023/03/08 02:38:08;;;;;;;13.77;6.90;;;3.20;99.90;;;;;;5012213;28;21000;-71
2023/03/08 02:40:37;;;;;;;12.87;6.07;;;3.10;99.90;;;;;;5002351;28;20470;-71
2023/03/08 02:43:04;;;;;;;15.13;7.77;;;3.20;99.90;;;;;;4996383;28;20547;-70
2023/03/08 02:45:32;;;;;;;14.33;6.90;;;3.30;99.90;;;;;;5013236;28;20425;-70
2023/03/08 02:47:59;;;;;;;17.30;7.03;;;3.40;99.90;;;;;;5011082;28;21070;-69
2023/03/08 02:50:26;;;;;;;15.70;9.37;;;3.60;99.90;;;;;;5005842;28;20914;-70
2023/03/08 02:52:55;;;;;;;17.97;8.63;;;3.60;99.90;;;;;;5012969;28;20789;-70
2023/03/08 02:55:22;;;;;;;12.30;6.47;;;3.50;99.90;;;;;;5012141;28;20479;-70
2023/03/08 02:57:50;;;;;;;7.93;6.53;;;3.40;99.90;;;;;;4997255;28;20457;-70
2023/03/08 03:00:18;;;;;;;12.40;6.50;;;3.40;99.90;;;;;;5014586;28;20456;-70
2023/03/08 03:02:44;;;;;;;12.70;7.10;;;3.40;99.90;;;;;;5007523;28;20420;-70
2023/03/08 03:05:12;;;;;;;11.93;7.30;;;3.40;99.90;;;;;;5012073;28;20432;-70
2023/03/08 03:07:43;;;;;;;11.67;5.60;;;3.40;99.90;;;;;;5014370;28;20448;-70
2023/03/08 03:10:12;;;;;;;11.17;7.27;;;3.40;99.90;;;;;;5017881;28;20427;-70
2023/03/08 03:12:39;;;;;;;9.53;5.30;;;3.40;99.90;;;;;;5005713;28;20464;-70
2023/03/08 03:15:09;;;;;;;15.80;6.00;;;3.40;99.90;;;;;;5008975;28;20421;-69
2023/03/08 03:17:36;;;;;;;20.77;7.40;;;3.30;99.90;;;;;;5006271;28;20523;-69
2023/03/08 03:20:05;;;;;;;11.70;5.67;;;3.20;99.90;;;;;;5018674;28;20476;-69
2023/03/08 03:22:32;;;;;;;18.47;9.30;;;3.20;99.90;;;;;;5007199;28;20470;-70
2023/03/08 03:24:59;;;;;;;12.10;7.53;;;3.30;99.90;;;;;;5008484;28;20542;-70
2023/03/08 03:27:26;;;;;;;13.60;6.73;;;3.30;99.90;;;;;;5012515;28;20464;-70
2023/03/08 03:29:53;;;;;;;11.43;7.73;;;3.40;99.90;;;;;;5011888;28;20451;-70
2023/03/08 03:32:21;;;;;;;7.20;5.00;;;3.50;99.90;;;;;;5011045;28;20461;-70
2023/03/08 03:34:48;;;;;;;12.70;6.90;;;3.50;99.90;;;;;;5010075;28;20449;-70
2023/03/08 03:37:15;;;;;;;19.87;9.70;;;3.60;99.90;;;;;;5008416;28;20816;-70
2023/03/08 03:39:42;;;;;;;12.40;7.30;;;3.50;99.90;;;;;;5000612;28;20965;-70
2023/03/08 03:42:10;;;;;;;17.13;7.27;;;3.60;99.90;;;;;;5003177;28;20925;-70
2023/03/08 03:44:36;;;;;;;10.57;5.90;;;3.50;99.90;;;;;;5007838;28;20524;-70
2023/03/08 03:47:03;;;;;;;21.00;5.93;;;3.50;99.90;;;;;;5002009;28;20477;-70
2023/03/08 03:49:32;;;;;;;13.93;6.60;;;3.60;99.90;;;;;;5007942;28;20519;-70
2023/03/08 03:51:58;;;;;;;15.20;8.50;;;3.60;99.90;;;;;;5008679;28;20969;-70
2023/03/08 03:54:26;;;;;;;11.33;7.20;;;3.50;99.90;;;;;;5006824;28;20439;-70
2023/03/08 03:56:56;;;;;;;11.57;7.20;;;3.60;99.90;;;;;;5010747;28;20565;-70
2023/03/08 03:59:23;;;;;;;13.00;5.77;;;3.70;99.90;;;;;;5004256;28;20428;-70
2023/03/08 04:01:50;;;;;;;13.17;7.40;;;3.90;99.90;;;;;;5006781;28;20440;-70
2023/03/08 04:04:17;;;;;;;14.97;9.73;;;3.90;99.90;;;;;;4999860;28;21051;-70
2023/03/08 04:06:46;;;;;;;14.40;8.20;;;3.60;99.90;;;;;;5000608;28;20548;-70
2023/03/08 04:09:17;;;;;;;13.53;7.70;;;3.60;99.90;;;;;;5006752;28;20467;-70
2023/03/08 04:11:44;;;;;;;14.97;7.53;;;3.70;99.90;;;;;;5004237;28;20439;-70
2023/03/08 04:14:11;;;;;;;15.30;8.23;;;3.60;99.90;;;;;;5003742;28;20540;-70
2023/03/08 04:16:39;;;;;;;11.00;6.27;;;3.60;99.90;;;;;;5010536;28;20812;-70
2023/03/08 04:19:08;;;;;;;11.27;6.70;;;3.40;99.90;;;;;;5002039;28;20996;-70
2023/03/08 04:21:36;;;;;;;13.17;7.40;;;3.50;99.90;;;;;;5000111;28;20482;-70
2023/03/08 04:24:05;;;;;;;12.37;7.10;;;3.60;99.90;;;;;;5005739;28;20609;-70
2023/03/08 04:26:32;;;;;;;10.87;6.50;;;3.60;99.90;;;;;;5002452;28;20456;-70
2023/03/08 04:28:59;;;;;;;13.13;7.00;;;3.60;99.90;;;;;;5010646;28;20449;-70
2023/03/08 04:31:28;;;;;;;13.10;7.50;;;3.60;99.90;;;;;;5001769;28;20452;-70
2023/03/08 04:33:57;;;;;;;11.60;6.83;;;3.60;99.90;;;;;;5004451;28;20452;-70
2023/03/08 04:36:24;;;;;;;12.57;5.70;;;3.60;99.90;;;;;;5003568;28;20465;-70
2023/03/08 04:38:51;;;;;;;10.10;5.10;;;3.40;99.90;;;;;;4996054;28;20442;-70
2023/03/08 04:41:19;;;;;;;14.90;6.77;;;3.50;99.90;;;;;;4994626;28;20424;-70
2023/03/08 04:43:49;;;;;;;18.20;8.20;;;3.60;99.90;;;;;;5012138;28;21009;-70
2023/03/08 04:46:17;;;;;;;10.20;7.10;;;3.60;99.90;;;;;;5011785;28;20550;-70
2023/03/08 04:48:46;;;;;;;13.80;8.77;;;3.60;99.90;;;;;;5012130;28;20523;-70
2023/03/08 04:51:14;;;;;;;12.27;6.07;;;3.60;99.90;;;;;;5007202;28;20535;-70
2023/03/08 04:53:44;;;;;;;19.53;8.47;;;3.50;99.90;;;;;;4999347;28;20858;-70
2023/03/08 04:56:12;;;;;;;12.43;6.27;;;3.50;99.90;;;;;;5004953;28;20502;-70
2023/03/08 04:58:40;;;;;;;7.33;5.20;;;3.50;99.90;;;;;;5010148;28;20459;-70
2023/03/08 05:01:11;;;;;;;11.63;6.00;;;3.50;99.90;;;;;;5004736;28;20837;-70
2023/03/08 05:03:38;;;;;;;16.63;7.60;;;3.50;99.90;;;;;;5006124;28;20500;-70
2023/03/08 05:06:06;;;;;;;16.50;9.00;;;3.50;99.90;;;;;;5008474;28;20496;-70
2023/03/08 05:08:34;;;;;;;7.63;5.60;;;3.50;99.90;;;;;;5003325;28;20607;-70
2023/03/08 05:11:03;;;;;;;12.60;7.73;;;3.60;99.90;;;;;;5005494;28;20431;-70
2023/03/08 05:13:31;;;;;;;9.47;7.10;;;3.70;99.90;;;;;;5014856;28;20465;-70
2023/03/08 05:16:00;;;;;;;14.30;8.10;;;3.60;99.90;;;;;;5009119;28;20822;-70
2023/03/08 05:18:27;;;;;;;13.73;7.30;;;3.70;99.90;;;;;;5005232;28;20453;-70
2023/03/08 05:20:55;;;;;;;6.87;5.00;;;3.70;99.90;;;;;;5007185;28;20440;-69
2023/03/08 05:23:25;;;;;;;13.13;7.57;;;3.60;99.90;;;;;;5008859;28;20522;-70
2023/03/08 05:25:53;;;;;;;14.27;5.90;;;3.60;99.90;;;;;;5004459;28;20473;-70
2023/03/08 05:28:21;;;;;;;10.80;6.90;;;3.60;99.90;;;;;;5007919;28;20473;-70
2023/03/08 05:30:48;;;;;;;20.33;9.37;;;3.50;99.90;;;;;;5006024;28;20435;-71
2023/03/08 05:33:16;;;;;;;13.97;6.57;;;3.60;99.90;;;;;;5003532;28;20533;-70
2023/03/08 05:35:44;;;;;;;12.27;6.90;;;3.60;99.90;;;;;;5007033;28;20517;-70
2023/03/08 05:38:10;;;;;;;9.03;5.00;;;3.60;99.90;;;;;;5005636;28;20514;-70
2023/03/08 05:40:38;;;;;;;18.90;9.70;;;3.60;99.90;;;;;;5018094;28;20645;-70
2023/03/08 05:43:05;;;;;;;9.80;7.80;;;3.60;99.90;;;;;;5024611;28;20472;-70
2023/03/08 05:45:32;;;;;;;11.80;6.30;;;3.50;99.90;;;;;;5001738;28;20455;-70
2023/03/08 05:47:59;;;;;;;10.13;4.33;;;3.50;99.90;;;;;;5010553;28;20489;-71
2023/03/08 05:50:28;;;;;;;15.70;8.20;;;3.50;99.90;;;;;;5004383;28;20460;-70
2023/03/08 05:52:54;;;;;;;15.60;7.73;;;3.50;99.90;;;;;;4997892;28;20466;-70
2023/03/08 05:55:22;;;;;;;19.30;5.83;;;3.50;99.90;;;;;;5013845;28;20420;-70
2023/03/08 05:57:48;;;;;;;14.03;7.33;;;3.40;99.90;;;;;;5000798;28;20775;-71
2023/03/08 06:00:16;;;;;;;8.90;5.10;;;3.50;99.90;;;;;;5015428;28;20933;-71
2023/03/08 06:02:43;;;;;;;7.67;6.03;;;3.40;99.90;;;;;;5015128;28;20428;-71
2023/03/08 06:05:10;;;;;;;11.07;6.30;;;3.40;99.90;;;;;;5002599;28;20467;-72
2023/03/08 06:07:38;;;;;;;13.03;7.10;;;3.30;99.90;;;;;;5008925;28;20993;-70
2023/03/08 06:10:06;;;;;;;15.50;6.40;;;3.10;99.90;;;;;;5007605;28;21004;-71
2023/03/08 06:12:33;;;;;;;11.00;6.83;;;3.10;99.90;;;;;;5004890;28;20478;-71
2023/03/08 06:15:00;;;;;;;10.40;6.60;;;3.00;99.90;;;;;;5015351;28;20452;-71
2023/03/08 06:17:27;;;;;;;11.40;5.80;;;3.00;99.90;;;;;;5004210;28;20473;-71
2023/03/08 06:19:54;;;;;;;12.67;6.90;;;2.90;99.90;;;;;;5015757;28;20428;-70
2023/03/08 06:22:21;;;;;;;5.87;4.10;;;3.00;99.90;;;;;;5008221;28;20456;-70
2023/03/08 06:24:53;;;;;;;12.97;6.63;;;3.00;99.90;;;;;;5012559;28;20533;-70
2023/03/08 06:27:20;;;;;;;5.27;3.93;;;3.00;99.90;;;;;;5006740;28;20476;-70
2023/03/08 06:29:49;;;;;;;6.53;5.50;;;2.90;99.90;;;;;;5002890;28;20876;-71
2023/03/08 06:32:16;;;;;;;8.63;5.00;;;2.90;99.90;;;;;;5006757;28;20425;-70
2023/03/08 06:34:43;;;;;;;8.33;3.97;;;2.80;99.90;;;;;;5012306;28;20485;-71
2023/03/08 06:37:11;;;;;;;6.23;2.50;;;2.80;99.90;;;;;;5015195;28;20452;-70
2023/03/08 06:39:38;;;;;;;7.40;6.03;;;2.80;99.90;;;;;;4988581;28;20417;-70
2023/03/08 06:42:07;;;;;;;5.30;3.90;;;2.70;99.90;;;;;;5005519;28;20458;-71
2023/03/08 06:44:34;;;;;;;6.47;4.10;;;2.80;99.90;;;;;;5011293;28;20469;-70
2023/03/08 06:47:01;;;;;;;3.90;3.60;;;2.80;99.90;;;;;;5014716;28;20557;-70
2023/03/08 06:49:28;;;;;;;3.53;2.97;;;2.80;99.90;;;;;;5004163;28;20451;-70
2023/03/08 06:51:55;;;;;;;11.80;5.37;;;2.80;99.90;;;;;;5005990;28;20425;-69
2023/03/08 06:54:23;;;;;;;6.43;3.27;;;2.90;99.90;;;;;;5011209;28;20820;-69
2023/03/08 06:56:49;;;;;;;6.20;4.97;;;2.90;99.90;;;;;;5014166;28;20837;-70
2023/03/08 06:59:18;;;;;;;6.10;3.97;;;2.80;99.90;;;;;;5015063;28;20571;-70
2023/03/08 07:01:45;;;;;;;11.07;2.23;;;2.70;99.90;;;;;;5004046;28;20974;-70
2023/03/08 07:04:11;;;;;;;4.33;2.33;;;2.50;99.90;;;;;;5001548;28;20479;-70
2023/03/08 07:06:38;;;;;;;3.43;3.13;;;2.40;99.90;;;;;;4997976;28;20461;-70
2023/03/08 07:09:05;;;;;;;7.27;3.43;;;2.40;99.90;;;;;;5005743;28;20423;-71
2023/03/08 07:11:33;;;;;;;2.70;1.93;;;2.50;99.90;;;;;;5010773;28;20952;-71
2023/03/08 07:14:00;;;;;;;5.67;3.60;;;2.40;99.90;;;;;;5003550;28;20454;-71
2023/03/08 07:16:28;;;;;;;9.10;3.43;;;2.30;99.90;;;;;;5005949;28;20568;-70
2023/03/08 07:18:55;;;;;;;4.07;2.20;;;2.20;99.90;;;;;;5011517;28;20450;-70
2023/03/08 07:21:23;;;;;;;2.37;2.17;;;2.20;99.90;;;;;;5011408;28;20518;-70
2023/03/08 07:23:52;;;;;;;4.23;2.00;;;2.20;99.90;;;;;;5005150;28;20476;-70
2023/03/08 07:26:19;;;;;;;3.53;1.97;;;2.20;99.90;;;;;;5001955;28;20492;-70
2023/03/08 07:28:50;;;;;;;3.77;3.07;;;2.20;99.90;;;;;;5015027;28;20461;-72
2023/03/08 07:31:17;;;;;;;2.43;1.63;;;2.30;99.90;;;;;;4997171;28;20457;-71
2023/03/08 07:33:45;;;;;;;4.93;2.10;;;2.30;99.90;;;;;;4995278;28;20449;-70
2023/03/08 07:36:12;;;;;;;4.07;1.90;;;2.30;99.90;;;;;;5000589;28;20439;-69
2023/03/08 07:38:39;;;;;;;1.40;1.23;;;2.20;99.90;;;;;;5004483;28;20487;-69
2023/03/08 07:41:06;;;;;;;3.33;2.80;;;2.00;99.90;;;;;;5014394;28;20484;-71
2023/03/08 07:43:33;;;;;;;1.27;1.17;;;1.90;99.90;;;;;;5007398;28;20972;-71
2023/03/08 07:46:02;;;;;;;6.50;1.80;;;1.90;99.90;;;;;;4995251;28;20471;-69
2023/03/08 07:48:29;;;;;;;7.00;2.33;;;1.90;99.90;;;;;;5009763;28;20523;-69
2023/03/08 07:51:04;;;;;;;3.90;2.03;;;2.00;99.90;;;;;;5010974;28;20442;-71
2023/03/08 07:53:31;;;;;;;2.43;1.40;;;2.00;99.90;;;;;;5009261;28;20456;-71
2023/03/08 07:55:58;;;;;;;1.17;1.07;;;1.90;99.90;;;;;;5010151;28;20449;-71
2023/03/08 07:58:26;;;;;;;1.10;0.90;;;1.80;99.90;;;;;;5013016;28;20454;-71
2023/03/08 08:00:56;;;;;;;1.80;1.70;;;1.70;99.90;;;;;;5005690;28;20416;-71
2023/03/08 08:03:23;;;;;;;0.90;0.70;;;1.60;99.90;;;;;;5016656;28;20434;-71
2023/03/08 08:05:50;;;;;;;1.10;0.93;;;1.70;99.90;;;;;;5007928;28;20466;-70
2023/03/08 08:08:18;;;;;;;1.60;1.00;;;1.60;99.90;;;;;;5006020;28;20461;-70
2023/03/08 08:10:46;;;;;;;1.30;1.00;;;1.70;99.90;;;;;;5005054;28;20830;-70
2023/03/08 08:13:13;;;;;;;1.93;1.80;;;1.70;99.90;;;;;;5006164;28;20425;-70
2023/03/08 08:15:40;;;;;;;5.50;2.00;;;1.70;99.90;;;;;;5002488;28;20978;-71
2023/03/08 08:18:07;;;;;;;3.93;1.47;;;1.70;99.90;;;;;;5009599;28;20798;-71
2023/03/08 08:20:33;;;;;;;0.90;0.70;;;1.70;99.90;;;;;;5006687;28;20444;-70
2023/03/08 08:23:05;;;;;;;0.90;0.70;;;1.70;99.90;;;;;;5009642;28;20471;-71
2023/03/08 08:25:33;;;;;;;0.90;0.70;;;1.70;99.90;;;;;;5009490;28;20507;-70
2023/03/08 08:28:00;;;;;;;1.33;1.10;;;1.70;99.90;;;;;;5007376;28;20489;-70
2023/03/08 08:30:27;;;;;;;1.30;0.93;;;1.70;99.90;;;;;;5005395;28;20544;-70
2023/03/08 08:32:54;;;;;;;2.13;1.83;;;1.60;99.90;;;;;;5009314;28;20525;-70
2023/03/08 08:35:21;;;;;;;2.70;2.47;;;1.70;99.90;;;;;;4993900;28;20517;-70
2023/03/08 08:37:48;;;;;;;0.90;0.60;;;1.70;99.90;;;;;;4999037;28;20444;-69
2023/03/08 08:40:15;;;;;;;2.00;1.90;;;1.80;99.90;;;;;;5006599;28;20515;-71
2023/03/08 08:42:46;;;;;;;2.70;2.53;;;1.70;99.90;;;;;;5012595;28;20450;-71
2023/03/08 08:45:13;;;;;;;0.90;0.80;;;1.60;99.90;;;;;;5002235;28;20675;-71
2023/03/08 08:47:40;;;;;;;1.93;1.70;;;1.50;99.90;;;;;;5010598;28;20520;-71
2023/03/08 08:50:07;;;;;;;1.00;0.80;;;1.60;99.90;;;;;;5011785;28;20533;-71
2023/03/08 08:52:34;;;;;;;1.10;1.00;;;1.50;99.90;;;;;;5000517;28;20427;-71
2023/03/08 08:55:01;;;;;;;1.00;0.80;;;1.60;99.90;;;;;;5009150;28;20419;-71
2023/03/08 08:57:28;;;;;;;1.30;1.20;;;1.60;99.90;;;;;;5007454;28;20452;-71
2023/03/08 08:59:56;;;;;;;1.60;1.50;;;1.50;99.90;;;;;;5003520;28;20516;-70
2023/03/08 09:02:23;;;;;;;1.20;1.10;;;1.60;99.90;;;;;;5008105;28;21027;-70
2023/03/08 09:04:51;;;;;;;2.13;1.57;;;1.70;99.90;;;;;;5012142;28;20909;-71
2023/03/08 09:07:18;;;;;;;1.77;1.47;;;1.80;99.90;;;;;;5013817;28;20494;-70
2023/03/08 09:09:45;;;;;;;0.90;0.67;;;1.60;99.90;;;;;;5005022;28;20958;-71
2023/03/08 09:12:15;;;;;;;2.83;1.50;;;1.60;99.90;;;;;;4998061;28;20421;-70
2023/03/08 09:14:44;;;;;;;1.20;0.90;;;1.60;99.90;;;;;;5000975;28;20532;-70
2023/03/08 09:17:13;;;;;;;2.30;2.00;;;1.70;99.90;;;;;;5004109;28;20899;-69
2023/03/08 09:19:40;;;;;;;1.57;1.17;;;1.80;99.90;;;;;;5000549;28;20565;-70
2023/03/08 09:22:10;;;;;;;2.73;2.50;;;1.70;99.90;;;;;;5008384;28;20464;-70
2023/03/08 09:24:37;;;;;;;1.63;1.50;;;1.80;99.90;;;;;;4999319;28;20419;-70
2023/03/08 09:27:05;;;;;;;2.80;1.90;;;1.80;99.90;;;;;;5002739;28;20447;-70
2023/03/08 09:29:33;;;;;;;1.00;0.87;;;2.10;99.90;;;;;;4998545;28;20434;-70
2023/03/08 09:32:01;;;;;;;1.20;1.10;;;2.10;99.90;;;;;;5014507;28;20476;-71
2023/03/08 09:34:31;;;;;;;1.63;1.53;;;2.00;99.90;;;;;;5011824;28;20424;-70
2023/03/08 09:36:58;;;;;;;5.93;3.17;;;1.90;99.90;;;;;;5016119;28;20455;-70
2023/03/08 09:39:26;;;;;;;1.00;0.90;;;2.00;99.90;;;;;;5016513;28;20484;-70
2023/03/08 09:41:56;;;;;;;1.40;1.20;;;2.00;99.90;;;;;;5006338;28;20487;-69
2023/03/08 09:44:51;;;;;;;0.90;0.70;;;1.90;99.90;;;;;;4988882;28;20429;-70
2023/03/08 09:47:30;;;;;;;1.57;1.00;;;2.00;99.90;;;;;;5005786;28;20457;-70
2023/03/08 09:50:07;;;;;;;0.90;0.70;;;2.00;99.90;;;;;;5006993;28;20415;-70
2023/03/08 09:52:38;;;;;;;1.87;1.33;;;2.10;99.90;;;;;;5015797;28;20902;-70
2023/03/08 09:55:12;;;;;;;2.60;1.93;;;2.00;99.90;;;;;;5002595;28;20441;-70
2023/03/08 09:57:46;;;;;;;1.70;1.27;;;2.00;99.90;;;;;;5003855;28;20542;-70
2023/03/08 10:00:20;;;;;;;1.47;0.90;;;1.90;99.90;;;;;;5010343;28;20499;-71
2023/03/08 10:02:56;;;;;;;3.33;3.03;;;2.00;99.90;;;;;;5008400;28;20451;-71
2023/03/08 10:05:30;;;;;;;1.30;1.07;;;2.00;99.90;;;;;;5023142;28;20478;-71
2023/03/08 10:08:05;;;;;;;2.67;1.40;;;2.10;99.90;;;;;;5005944;28;20522;-71
2023/03/08 10:10:41;;;;;;;2.97;1.53;;;2.20;99.90;;;;;;5024469;28;20457;-71
2023/03/08 10:13:26;;;;;;;1.57;1.47;;;2.00;99.90;;;;;;5019278;28;20420;-71
2023/03/08 10:15:57;;;;;;;2.30;1.33;;;2.10;99.90;;;;;;5013073;28;20460;-72
2023/03/08 10:18:29;;;;;;;2.60;1.80;;;2.10;99.90;;;;;;5016870;28;20420;-70
2023/03/08 10:21:00;;;;;;;2.60;2.40;;;2.30;99.90;;;;;;5010960;28;20493;-72
2023/03/08 10:23:31;;;;;;;5.63;2.47;;;2.30;99.90;;;;;;5010307;28;20471;-71
2023/03/08 10:25:59;;;;;;;5.53;3.57;;;2.60;99.90;;;;;;5012209;28;20448;-71
2023/03/08 10:28:27;;;;;;;5.37;3.17;;;2.90;99.90;;;;;;5008110;28;20481;-72
2023/03/08 10:30:57;;;;;;;2.80;1.60;;;2.90;99.90;;;;;;5017331;28;20455;-70
2023/03/08 10:33:26;;;;;;;2.60;2.07;;;2.70;99.90;;;;;;4997103;28;20535;-70
2023/03/08 10:35:56;;;;;;;4.90;2.40;;;2.50;99.90;;;;;;5009993;28;20514;-70
2023/03/08 10:38:27;;;;;;;2.03;1.93;;;2.40;99.90;;;;;;5016853;28;20427;-70
2023/03/08 10:41:05;;;;;;;10.60;3.33;;;2.50;99.90;;;;;;5009800;28;20511;-70
2023/03/08 10:43:36;;;;;;;3.23;2.23;;;2.50;99.90;;;;;;5008425;28;20498;-71
2023/03/08 10:46:05;;;;;;;1.13;1.00;;;2.60;99.90;;;;;;5007167;28;20521;-71
2023/03/08 10:48:32;;;;;;;5.93;2.80;;;2.80;99.90;;;;;;5013982;28;20831;-71
2023/03/08 10:51:04;;;;;;;2.33;2.13;;;2.70;99.90;;;;;;5009943;28;20929;-71
2023/03/08 10:53:33;;;;;;;1.97;1.77;;;2.50;99.90;;;;;;4991677;28;20830;-72
2023/03/08 10:56:01;;;;;;;1.73;1.63;;;2.30;99.90;;;;;;5014865;28;20493;-71
2023/03/08 10:58:34;;;;;;;1.63;1.53;;;2.50;99.90;;;;;;5013212;28;20432;-71
2023/03/08 11:01:04;;;;;;;3.83;1.63;;;2.60;99.90;;;;;;5022054;28;20431;-73
2023/03/08 11:03:32;;;;;;;1.53;1.43;;;2.60;99.90;;;;;;5013078;28;20422;-69
2023/03/08 11:06:01;;;;;;;7.43;3.07;;;2.60;99.90;;;;;;5004609;28;20464;-71
2023/03/08 11:08:33;;;;;;;1.73;1.63;;;2.60;99.90;;;;;;5010194;28;20447;-72
2023/03/08 11:11:05;;;;;;;3.77;1.80;;;2.60;99.90;;;;;;5011444;28;20438;-71
2023/03/08 11:13:34;;;;;;;1.00;0.87;;;2.60;99.90;;;;;;5017251;28;20445;-72
2023/03/08 11:16:30;;;;;;;2.00;1.90;;;2.90;99.90;;;;;;4981684;28;20420;-72
2023/03/08 11:19:16;;;;;;;2.37;1.20;;;2.80;99.90;;;;;;5012066;28;20536;-70
2023/03/08 11:21:58;;;;;;;1.67;1.37;;;2.70;99.90;;;;;;5007980;28;20457;-70
2023/03/08 11:24:39;;;;;;;1.93;1.40;;;2.70;99.90;;;;;;5002221;28;20949;-71
2023/03/08 11:27:20;;;;;;;1.83;1.30;;;2.50;99.90;;;;;;5004005;28;20456;-70
2023/03/08 11:30:01;;;;;;;4.30;2.50;;;2.40;99.90;;;;;;5010915;28;20454;-70
2023/03/08 11:32:43;;;;;;;2.13;1.90;;;2.50;99.90;;;;;;5004205;28;20496;-71
2023/03/08 11:35:17;;;;;;;4.47;2.40;;;2.70;99.90;;;;;;5010970;28;20521;-71
2023/03/08 11:37:53;;;;;;;1.37;1.00;;;2.80;99.90;;;;;;5004460;28;20480;-72
2023/03/08 11:40:25;;;;;;;3.30;2.10;;;2.70;99.90;;;;;;5002872;28;20519;-73
2023/03/08 11:43:10;;;;;;;0.90;0.70;;;2.70;99.90;;;;;;5011187;28;20435;-72
2023/03/08 11:45:43;;;;;;;3.70;1.80;;;2.80;99.90;;;;;;5010229;28;20510;-70
2023/03/08 11:48:38;;;;;;;3.23;2.87;;;2.80;99.90;;;;;;5010362;28;20449;-70
2023/03/08 11:51:10;;;;;;;4.90;2.50;;;2.90;99.90;;;;;;5010617;28;20430;-71
2023/03/08 11:53:49;;;;;;;1.77;1.63;;;2.90;99.90;;;;;;5005507;28;20474;-71
2023/03/08 11:56:37;;;;;;;7.63;1.10;;;2.90;99.90;;;;;;5016359;28;20568;-71
2023/03/08 11:59:10;;;;;;;2.00;1.80;;;2.80;99.90;;;;;;5016665;28;20415;-71
2023/03/08 12:01:45;;;;;;;1.30;1.10;;;2.80;99.90;;;;;;5003768;28;20421;-71
2023/03/08 12:04:17;;;;;;;1.33;1.10;;;2.70;99.90;;;;;;4999187;28;20450;-71
2023/03/08 12:06:45;;;;;;;3.97;1.67;;;2.60;99.90;;;;;;5000338;28;20459;-71
2023/03/08 12:09:21;;;;;;;1.50;1.40;;;2.70;99.90;;;;;;5007686;28;20429;-71
2023/03/08 12:11:58;;;;;;;4.27;2.60;;;2.80;99.90;;;;;;5008406;28;20420;-72
2023/03/08 12:14:30;;;;;;;3.93;2.93;;;2.80;99.90;;;;;;5004883;28;21014;-72
2023/03/08 12:17:07;;;;;;;5.57;2.53;;;2.90;99.90;;;;;;5017051;28;20794;-72
2023/03/08 12:19:40;;;;;;;4.37;1.80;;;2.90;99.90;;;;;;5001845;28;20450;-72
2023/03/08 12:22:21;;;;;;;3.70;2.17;;;3.10;99.90;;;;;;5010097;28;20412;-71
2023/03/08 12:24:53;;;;;;;5.00;2.40;;;2.90;99.90;;;;;;5008365;28;20978;-71
2023/03/08 12:27:28;;;;;;;8.67;3.10;;;2.80;99.90;;;;;;5005144;28;20485;-71
2023/03/08 12:30:02;;;;;;;1.77;1.67;;;3.00;99.90;;;;;;5008678;28;20460;-71
2023/03/08 12:32:30;;;;;;;1.77;1.67;;;3.10;99.90;;;;;;4995229;28;20529;-71
2023/03/08 12:35:05;;;;;;;5.00;2.93;;;2.80;99.90;;;;;;5002149;28;20431;-71
2023/03/08 12:37:32;;;;;;;1.73;1.63;;;2.70;99.90;;;;;;5011037;28;20554;-71
2023/03/08 12:40:04;;;;;;;1.77;1.47;;;2.80;99.90;;;;;;5006498;28;20453;-71
2023/03/08 12:42:37;;;;;;;3.33;2.47;;;2.70;99.90;;;;;;5006219;28;20458;-72
2023/03/08 12:45:25;;;;;;;4.67;1.97;;;2.80;99.90;;;;;;5006394;28;20427;-71
2023/03/08 12:47:57;;;;;;;1.07;0.77;;;2.70;99.90;;;;;;5006345;28;20467;-71
2023/03/08 12:50:25;;;;;;;1.50;1.13;;;2.70;99.90;;;;;;5005255;28;20921;-71
2023/03/08 12:52:52;;;;;;;3.00;1.63;;;2.80;99.90;;;;;;5007051;28;20939;-71
2023/03/08 12:55:21;;;;;;;1.60;1.50;;;2.80;99.90;;;;;;4996044;28;20454;-71
2023/03/08 12:57:51;;;;;;;2.53;1.50;;;2.80;99.90;;;;;;5004840;28;20932;-71
2023/03/08 13:00:27;;;;;;;1.37;1.27;;;2.90;99.90;;;;;;5009308;28;20454;-71
2023/03/08 13:03:04;;;;;;;3.13;1.97;;;3.10;99.90;;;;;;5004664;28;20544;-72
2023/03/08 13:05:34;;;;;;;1.53;1.30;;;3.10;99.90;;;;;;5007946;28;20790;-71